createdAt,value
2017-04-12T00:00:06.243Z,9.93
2017-04-12T00:01:07.471Z,9.97
2017-04-12T00:02:08.696Z,9.86
2017-04-12T00:03:09.933Z,9.83
2017-04-12T00:04:11.186Z,9.88
2017-04-12T00:05:12.464Z,9.83
2017-04-12T00:06:13.750Z,9.78
2017-04-12T00:07:14.989Z,9.7
2017-04-12T00:08:16.228Z,9.78
2017-04-12T00:09:17.471Z,9.7
2017-04-12T00:10:18.737Z,9.67
2017-04-12T00:11:19.986Z,9.7
2017-04-12T00:12:21.289Z,9.71
2017-04-12T00:13:22.612Z,9.75
2017-04-12T00:14:23.834Z,9.68
2017-04-12T00:15:25.211Z,9.7
2017-04-12T00:16:26.474Z,9.73
2017-04-12T00:17:27.841Z,9.6
2017-04-12T00:18:29.086Z,9.67
2017-04-12T00:19:30.312Z,9.6
2017-04-12T00:20:31.563Z,9.58
2017-04-12T00:21:32.923Z,9.58
2017-04-12T00:22:34.159Z,9.71
2017-04-12T00:23:35.512Z,9.61
2017-04-12T00:24:36.757Z,9.58
2017-04-12T00:25:38.016Z,9.63
2017-04-12T00:26:39.237Z,9.66
2017-04-12T00:27:40.480Z,9.6
2017-04-12T00:28:41.892Z,9.66
2017-04-12T00:29:43.114Z,9.57
2017-04-12T00:30:44.511Z,9.52
2017-04-12T00:31:45.720Z,9.64
2017-04-12T00:32:47.294Z,9.53
2017-04-12T00:33:48.564Z,9.49
2017-04-12T00:34:49.889Z,9.5
2017-04-12T00:35:51.161Z,9.49
2017-04-12T00:36:52.415Z,9.52
2017-04-12T00:37:53.632Z,9.48
2017-04-12T00:38:54.949Z,9.56
2017-04-12T00:39:56.188Z,9.43
2017-04-12T00:40:57.436Z,9.42
2017-04-12T00:41:58.675Z,9.56
2017-04-12T00:42:59.915Z,9.38
2017-04-12T00:44:01.162Z,9.42
2017-04-12T00:45:02.414Z,9.39
2017-04-12T00:46:03.636Z,9.42
2017-04-12T00:47:04.954Z,9.45
2017-04-12T00:48:06.155Z,9.43
2017-04-12T00:49:07.447Z,9.43
2017-04-12T00:50:08.684Z,9.35
2017-04-12T00:51:09.927Z,9.39
2017-04-12T00:52:11.212Z,9.34
2017-04-12T00:53:12.460Z,9.38
2017-04-12T00:54:13.784Z,9.45
2017-04-12T00:55:15.004Z,9.35
2017-04-12T00:56:16.240Z,9.38
2017-04-12T00:57:17.498Z,9.42
2017-04-12T00:58:18.792Z,9.4
2017-04-12T00:59:20.026Z,9.39
2017-04-12T01:00:21.276Z,9.43
2017-04-12T01:01:22.568Z,9.31
2017-04-12T01:02:23.835Z,9.4
2017-04-12T01:03:25.115Z,9.4
2017-04-12T01:04:26.353Z,9.43
2017-04-12T01:05:27.651Z,9.43
2017-04-12T01:06:28.898Z,9.43
2017-04-12T01:07:30.126Z,9.4
2017-04-12T01:08:31.409Z,9.46
2017-04-12T01:09:32.642Z,9.3
2017-04-12T01:10:33.875Z,9.3
2017-04-12T01:11:35.119Z,9.34
2017-04-12T01:12:36.359Z,9.39
2017-04-12T01:13:37.618Z,9.43
2017-04-12T01:14:38.867Z,9.42
2017-04-12T01:15:40.100Z,9.35
2017-04-12T01:16:41.338Z,9.28
2017-04-12T01:17:42.594Z,9.3
2017-04-12T01:18:43.855Z,9.34
2017-04-12T01:19:45.117Z,9.35
2017-04-12T01:20:46.380Z,9.27
2017-04-12T01:21:47.740Z,9.25
2017-04-12T01:22:49.014Z,9.24
2017-04-12T01:23:50.249Z,9.35
2017-04-12T01:24:51.490Z,9.25
2017-04-12T01:25:52.781Z,9.27
2017-04-12T01:26:54.011Z,9.34
2017-04-12T01:27:55.339Z,9.3
2017-04-12T01:28:56.572Z,9.27
2017-04-12T01:29:57.829Z,9.34
2017-04-12T01:30:59.130Z,9.25
2017-04-12T01:32:00.358Z,9.28
2017-04-12T01:33:01.594Z,9.25
2017-04-12T01:34:02.834Z,9.3
2017-04-12T01:35:04.079Z,9.28
2017-04-12T01:36:05.327Z,9.28
2017-04-12T01:37:06.600Z,9.25
2017-04-12T01:38:07.863Z,9.3
2017-04-12T01:39:09.117Z,9.24
2017-04-12T01:40:10.349Z,9.23
2017-04-12T01:41:11.613Z,9.24
2017-04-12T01:42:12.835Z,9.31
2017-04-12T01:43:14.114Z,9.25
2017-04-12T01:44:15.442Z,9.24
2017-04-12T01:45:16.722Z,9.23
2017-04-12T01:46:17.913Z,9.28
2017-04-12T01:47:19.202Z,9.27
2017-04-12T01:48:20.456Z,9.27
2017-04-12T01:49:21.678Z,9.3
2017-04-12T01:50:22.944Z,9.28
2017-04-12T01:51:24.193Z,9.23
2017-04-12T01:52:25.504Z,9.28
2017-04-12T01:53:26.743Z,9.24
2017-04-12T01:54:27.963Z,9.27
2017-04-12T01:55:29.216Z,9.31
2017-04-12T01:56:30.466Z,9.27
2017-04-12T01:57:31.753Z,9.25
2017-04-12T01:58:33.044Z,9.25
2017-04-12T01:59:34.304Z,9.27
2017-04-12T02:00:35.535Z,9.27
2017-04-12T02:01:36.796Z,9.27
2017-04-12T02:02:38.006Z,9.27
2017-04-12T02:03:39.345Z,9.28
2017-04-12T02:04:40.580Z,9.3
2017-04-12T02:05:41.805Z,9.28
2017-04-12T02:06:43.046Z,9.31
2017-04-12T02:07:44.281Z,9.28
2017-04-12T02:08:45.566Z,9.31
2017-04-12T02:09:46.835Z,9.28
2017-04-12T02:10:48.084Z,9.24
2017-04-12T02:11:49.398Z,9.27
2017-04-12T02:12:50.642Z,9.31
2017-04-12T02:13:51.889Z,9.24
2017-04-12T02:14:53.116Z,9.27
2017-04-12T02:15:54.409Z,9.23
2017-04-12T02:16:55.656Z,9.21
2017-04-12T02:17:56.900Z,9.2
2017-04-12T02:18:58.126Z,9.13
2017-04-12T02:19:59.370Z,9.16
2017-04-12T02:21:00.614Z,9.2
2017-04-12T02:22:01.861Z,9.16
2017-04-12T02:23:03.113Z,9.24
2017-04-12T02:24:04.341Z,9.13
2017-04-12T02:25:05.580Z,9.18
2017-04-12T02:26:06.838Z,9.06
2017-04-12T02:27:08.056Z,9.09
2017-04-12T02:28:09.410Z,9.09
2017-04-12T02:29:10.650Z,9.13
2017-04-12T02:30:11.942Z,9.13
2017-04-12T02:31:13.433Z,9.12
2017-04-12T02:32:14.628Z,9.06
2017-04-12T02:33:15.871Z,9.09
2017-04-12T02:34:17.146Z,9.06
2017-04-12T02:35:18.382Z,9.16
2017-04-12T02:36:19.712Z,9.1
2017-04-12T02:37:20.948Z,9.12
2017-04-12T02:38:22.216Z,9.15
2017-04-12T02:39:23.459Z,9.15
2017-04-12T02:40:24.806Z,9.13
2017-04-12T02:41:26.109Z,9.15
2017-04-12T02:42:27.570Z,9.21
2017-04-12T02:43:28.797Z,9.16
2017-04-12T02:44:30.062Z,9.21
2017-04-12T02:45:31.347Z,9.13
2017-04-12T02:46:32.674Z,9.18
2017-04-12T02:47:33.875Z,9.2
2017-04-12T02:48:35.118Z,9.12
2017-04-12T02:49:36.375Z,9.1
2017-04-12T02:50:37.657Z,9.15
2017-04-12T02:51:38.978Z,9.16
2017-04-12T02:52:40.236Z,9.24
2017-04-12T02:53:41.451Z,9.15
2017-04-12T02:54:42.688Z,9.13
2017-04-12T02:55:43.932Z,9.16
2017-04-12T02:56:45.184Z,9.28
2017-04-12T02:57:46.416Z,9.15
2017-04-12T02:58:47.771Z,9.21
2017-04-12T02:59:49.050Z,9.21
2017-04-12T03:00:50.283Z,9.23
2017-04-12T03:01:51.511Z,9.18
2017-04-12T03:02:52.747Z,9.16
2017-04-12T03:03:53.972Z,9.18
2017-04-12T03:04:55.250Z,9.12
2017-04-12T03:05:56.480Z,9.18
2017-04-12T03:06:57.749Z,9.24
2017-04-12T03:07:58.985Z,9.15
2017-04-12T03:09:00.197Z,9.12
2017-04-12T03:10:01.436Z,9.15
2017-04-12T03:11:02.687Z,9.12
2017-04-12T03:12:03.929Z,9.16
2017-04-12T03:13:05.189Z,9.15
2017-04-12T03:14:06.455Z,9.12
2017-04-12T03:15:07.697Z,9.09
2017-04-12T03:16:08.937Z,9.16
2017-04-12T03:17:10.181Z,9.18
2017-04-12T03:18:11.516Z,9.12
2017-04-12T03:19:12.813Z,9.2
2017-04-12T03:20:14.038Z,9.13
2017-04-12T03:21:15.277Z,9.13
2017-04-12T03:22:16.508Z,9.06
2017-04-12T03:23:17.771Z,9.02
2017-04-12T03:24:18.996Z,9.16
2017-04-12T03:25:20.262Z,9.06
2017-04-12T03:26:21.545Z,9.06
2017-04-12T03:27:22.834Z,9.04
2017-04-12T03:28:24.043Z,9.09
2017-04-12T03:29:25.291Z,9.12
2017-04-12T03:30:26.524Z,9.05
2017-04-12T03:31:27.770Z,9.01
2017-04-12T03:32:29.044Z,9.04
2017-04-12T03:33:30.258Z,8.99
2017-04-12T03:34:31.588Z,9.02
2017-04-12T03:35:32.822Z,9.12
2017-04-12T03:36:34.061Z,9.01
2017-04-12T03:37:35.378Z,8.93
2017-04-12T03:38:36.637Z,9.01
2017-04-12T03:39:37.842Z,8.97
2017-04-12T03:40:39.079Z,8.99
2017-04-12T03:41:40.330Z,9.06
2017-04-12T03:42:41.660Z,8.94
2017-04-12T03:43:42.907Z,8.97
2017-04-12T03:44:44.199Z,8.97
2017-04-12T03:45:45.465Z,8.97
2017-04-12T03:46:46.703Z,8.88
2017-04-12T03:47:47.940Z,8.94
2017-04-12T03:48:49.205Z,8.97
2017-04-12T03:49:50.440Z,8.96
2017-04-12T03:50:51.695Z,8.97
2017-04-12T03:51:52.931Z,8.97
2017-04-12T03:52:54.182Z,9.06
2017-04-12T03:53:55.452Z,9.06
2017-04-12T03:54:56.684Z,9.1
2017-04-12T03:55:57.915Z,9.05
2017-04-12T03:56:59.323Z,9.05
2017-04-12T03:58:00.598Z,9.05
2017-04-12T03:59:01.862Z,9.02
2017-04-12T04:00:03.138Z,8.94
2017-04-12T04:01:04.360Z,9.04
2017-04-12T04:02:05.648Z,9.01
2017-04-12T04:03:06.914Z,8.94
2017-04-12T04:04:08.151Z,8.9
2017-04-12T04:05:09.398Z,9.01
2017-04-12T04:06:10.669Z,8.97
2017-04-12T04:07:11.882Z,8.94
2017-04-12T04:08:13.132Z,8.94
2017-04-12T04:09:14.378Z,8.87
2017-04-12T04:10:15.620Z,8.93
2017-04-12T04:11:16.920Z,8.86
2017-04-12T04:12:18.149Z,8.79
2017-04-12T04:13:19.388Z,8.84
2017-04-12T04:14:20.701Z,8.84
2017-04-12T04:15:21.966Z,8.91
2017-04-12T04:16:23.305Z,8.83
2017-04-12T04:17:24.550Z,8.83
2017-04-12T04:18:25.773Z,8.79
2017-04-12T04:19:27.006Z,8.86
2017-04-12T04:20:28.255Z,8.81
2017-04-12T04:21:29.488Z,8.87
2017-04-12T04:22:30.737Z,8.88
2017-04-12T04:23:32.014Z,8.9
2017-04-12T04:24:33.247Z,8.88
2017-04-12T04:25:34.482Z,8.9
2017-04-12T04:26:35.743Z,8.96
2017-04-12T04:27:36.972Z,8.9
2017-04-12T04:28:38.211Z,8.94
2017-04-12T04:29:39.544Z,8.91
2017-04-12T04:30:40.781Z,8.91
2017-04-12T04:31:42.022Z,8.93
2017-04-12T04:32:43.272Z,8.93
2017-04-12T04:33:44.517Z,8.91
2017-04-12T04:34:45.767Z,8.99
2017-04-12T04:35:47.157Z,8.96
2017-04-12T04:36:48.329Z,8.96
2017-04-12T04:37:49.634Z,8.97
2017-04-12T04:38:50.846Z,8.97
2017-04-12T04:39:52.093Z,8.94
2017-04-12T04:40:53.341Z,8.99
2017-04-12T04:41:54.678Z,8.96
2017-04-12T04:42:55.916Z,8.93
2017-04-12T04:43:57.174Z,8.91
2017-04-12T04:44:58.406Z,8.96
2017-04-12T04:45:59.656Z,8.94
2017-04-12T04:47:00.894Z,8.97
2017-04-12T04:48:02.240Z,8.93
2017-04-12T04:49:03.487Z,8.99
2017-04-12T04:50:04.724Z,9.02
2017-04-12T04:51:05.961Z,9.04
2017-04-12T04:52:07.193Z,8.97
2017-04-12T04:53:08.450Z,8.94
2017-04-12T04:54:09.694Z,9.06
2017-04-12T04:55:11.033Z,8.94
2017-04-12T04:56:12.269Z,9.02
2017-04-12T04:57:13.500Z,9.01
2017-04-12T04:58:14.735Z,8.99
2017-04-12T04:59:15.976Z,8.99
2017-04-12T05:00:17.239Z,9.04
2017-04-12T05:01:18.464Z,9.05
2017-04-12T05:02:19.793Z,9.05
2017-04-12T05:03:21.046Z,9.06
2017-04-12T05:04:22.295Z,9.12
2017-04-12T05:05:23.567Z,9.12
2017-04-12T05:06:24.799Z,9.1
2017-04-12T05:07:26.109Z,9.21
2017-04-12T05:08:27.350Z,9.12
2017-04-12T05:09:28.617Z,9.2
2017-04-12T05:10:29.876Z,9.13
2017-04-12T05:11:31.143Z,9.13
2017-04-12T05:12:32.367Z,9.12
2017-04-12T05:13:33.612Z,9.2
2017-04-12T05:14:34.926Z,9.24
2017-04-12T05:15:36.142Z,9.27
2017-04-12T05:16:37.397Z,9.25
2017-04-12T05:17:38.624Z,9.31
2017-04-12T05:18:39.865Z,9.24
2017-04-12T05:19:41.112Z,9.28
2017-04-12T05:20:42.374Z,9.24
2017-04-12T05:21:43.652Z,9.31
2017-04-12T05:22:44.910Z,9.42
2017-04-12T05:23:46.136Z,9.42
2017-04-12T05:24:47.382Z,9.43
2017-04-12T05:25:48.623Z,9.43
2017-04-12T05:26:49.932Z,9.48
2017-04-12T05:27:51.208Z,9.45
2017-04-12T05:28:52.446Z,9.48
2017-04-12T05:29:53.683Z,9.49
2017-04-12T05:30:54.920Z,9.48
2017-04-12T05:31:56.164Z,9.48
2017-04-12T05:32:57.470Z,9.61
2017-04-12T05:33:58.780Z,9.61
2017-04-12T05:34:59.977Z,9.61
2017-04-12T05:36:01.191Z,9.56
2017-04-12T05:37:02.420Z,9.61
2017-04-12T05:38:03.669Z,9.64
2017-04-12T05:39:04.908Z,9.61
2017-04-12T05:40:06.154Z,9.64
2017-04-12T05:41:07.442Z,9.7
2017-04-12T05:42:08.763Z,9.78
2017-04-12T05:43:09.970Z,9.71
2017-04-12T05:44:11.219Z,9.76
2017-04-12T05:45:12.442Z,9.75
2017-04-12T05:46:13.697Z,9.7
2017-04-12T05:47:14.961Z,9.73
2017-04-12T05:48:16.194Z,9.78
2017-04-12T05:49:17.441Z,9.71
2017-04-12T05:50:18.691Z,9.82
2017-04-12T05:51:19.933Z,9.88
2017-04-12T05:52:21.184Z,9.82
2017-04-12T05:53:22.415Z,9.85
2017-04-12T05:54:23.681Z,9.86
2017-04-12T05:55:24.936Z,9.86
2017-04-12T05:56:26.171Z,10.01
2017-04-12T05:57:27.465Z,10.03
2017-04-12T05:58:28.700Z,9.97
2017-04-12T05:59:30.001Z,9.96
2017-04-12T06:00:31.326Z,9.97
2017-04-12T06:01:32.567Z,10
2017-04-12T06:02:33.824Z,10.06
2017-04-12T06:03:35.075Z,9.96
2017-04-12T06:04:36.310Z,10.09
2017-04-12T06:05:37.545Z,10.19
2017-04-12T06:06:38.906Z,10.22
2017-04-12T06:07:40.157Z,10.26
2017-04-12T06:08:41.384Z,10.28
2017-04-12T06:09:42.634Z,10.34
2017-04-12T06:10:43.879Z,10.32
2017-04-12T06:11:45.124Z,10.39
2017-04-12T06:12:46.408Z,10.44
2017-04-12T06:13:47.657Z,10.46
2017-04-12T06:14:48.902Z,10.43
2017-04-12T06:15:50.153Z,10.55
2017-04-12T06:16:51.451Z,10.6
2017-04-12T06:17:52.784Z,10.71
2017-04-12T06:18:54.071Z,10.91
2017-04-12T06:19:55.316Z,11.01
2017-04-12T06:20:56.569Z,11.01
2017-04-12T06:21:57.812Z,11.13
2017-04-12T06:22:59.147Z,11.21
2017-04-12T06:24:00.338Z,11.25
2017-04-12T06:25:01.587Z,11.39
2017-04-12T06:26:02.886Z,11.44
2017-04-12T06:27:04.127Z,11.54
2017-04-12T06:28:05.435Z,11.74
2017-04-12T06:29:06.703Z,11.72
2017-04-12T06:30:07.928Z,11.74
2017-04-12T06:31:09.203Z,11.87
2017-04-12T06:32:10.446Z,11.72
2017-04-12T06:33:11.685Z,11.86
2017-04-12T06:34:12.935Z,11.68
2017-04-12T06:35:14.210Z,11.64
2017-04-12T06:36:15.518Z,11.54
2017-04-12T06:37:16.779Z,11.46
2017-04-12T06:38:18.015Z,11.52
2017-04-12T06:39:19.367Z,11.56
2017-04-12T06:40:20.621Z,11.54
2017-04-12T06:41:21.872Z,11.54
2017-04-12T06:42:23.207Z,11.56
2017-04-12T06:43:24.439Z,11.67
2017-04-12T06:44:25.686Z,11.75
2017-04-12T06:45:26.923Z,11.82
2017-04-12T06:46:28.209Z,11.85
2017-04-12T06:47:29.542Z,11.86
2017-04-12T06:48:30.789Z,11.89
2017-04-12T06:49:32.135Z,11.96
2017-04-12T06:50:33.426Z,12.04
2017-04-12T06:51:34.683Z,12.04
2017-04-12T06:52:35.936Z,12.05
2017-04-12T06:53:37.305Z,12.15
2017-04-12T06:54:38.504Z,12.06
2017-04-12T06:55:39.818Z,12.01
2017-04-12T06:56:41.054Z,12.12
2017-04-12T06:57:42.294Z,11.99
2017-04-12T06:58:43.561Z,12.08
2017-04-12T06:59:44.809Z,12.15
2017-04-12T07:00:46.107Z,12.31
2017-04-12T07:01:47.346Z,12.62
2017-04-12T07:02:48.591Z,12.67
2017-04-12T07:03:49.819Z,12.78
2017-04-12T07:04:51.064Z,12.95
2017-04-12T07:05:52.306Z,13.03
2017-04-12T07:06:53.576Z,13.15
2017-04-12T07:07:54.860Z,13.3
2017-04-12T07:08:56.245Z,13.47
2017-04-12T07:09:57.570Z,13.54
2017-04-12T07:10:58.800Z,13.51
2017-04-12T07:12:00.075Z,13.54
2017-04-12T07:13:01.346Z,13.62
2017-04-12T07:14:02.588Z,13.7
2017-04-12T07:15:03.890Z,13.79
2017-04-12T07:16:05.135Z,13.71
2017-04-12T07:17:06.388Z,13.92
2017-04-12T07:18:07.638Z,14.16
2017-04-12T07:19:08.913Z,14.01
2017-04-12T07:20:10.246Z,14.13
2017-04-12T07:21:11.542Z,14.01
2017-04-12T07:22:12.765Z,14.06
2017-04-12T07:23:14.003Z,13.73
2017-04-12T07:24:15.346Z,13.49
2017-04-12T07:25:16.583Z,13.47
2017-04-12T07:26:17.908Z,13.15
2017-04-12T07:27:19.129Z,13.12
2017-04-12T07:28:20.385Z,13.06
2017-04-12T07:29:21.717Z,13.02
2017-04-12T07:30:22.966Z,12.97
2017-04-12T07:31:24.205Z,12.84
2017-04-12T07:32:25.564Z,12.92
2017-04-12T07:33:26.817Z,12.89
2017-04-12T07:34:28.056Z,13.03
2017-04-12T07:35:29.315Z,12.82
2017-04-12T07:36:30.564Z,12.95
2017-04-12T07:37:31.940Z,13.06
2017-04-12T07:38:33.237Z,13.09
2017-04-12T07:39:34.534Z,13.17
2017-04-12T07:40:35.695Z,13.03
2017-04-12T07:41:36.929Z,12.97
2017-04-12T07:42:38.193Z,12.78
2017-04-12T07:43:39.433Z,12.74
2017-04-12T07:44:40.675Z,12.74
2017-04-12T07:45:41.933Z,12.71
2017-04-12T07:46:43.182Z,12.64
2017-04-12T07:47:44.417Z,12.62
2017-04-12T07:48:45.670Z,12.54
2017-04-12T07:49:46.927Z,12.51
2017-04-12T07:50:48.192Z,12.51
2017-04-12T07:51:49.479Z,12.52
2017-04-12T07:52:50.733Z,12.62
2017-04-12T07:53:51.967Z,12.71
2017-04-12T07:54:53.236Z,12.56
2017-04-12T07:55:54.480Z,12.7
2017-04-12T07:56:55.727Z,12.71
2017-04-12T07:57:56.988Z,12.69
2017-04-12T07:58:58.219Z,12.74
2017-04-12T07:59:59.448Z,12.85
2017-04-12T08:01:00.681Z,12.71
2017-04-12T08:02:01.922Z,12.87
2017-04-12T08:03:03.175Z,12.81
2017-04-12T08:04:04.524Z,12.7
2017-04-12T08:05:05.769Z,12.88
2017-04-12T08:06:07.006Z,12.69
2017-04-12T08:07:08.257Z,12.87
2017-04-12T08:08:09.508Z,12.99
2017-04-12T08:09:10.762Z,12.92
2017-04-12T08:10:11.996Z,13.04
2017-04-12T08:11:13.237Z,13.36
2017-04-12T08:12:14.515Z,13.55
2017-04-12T08:13:15.738Z,13.74
2017-04-12T08:14:16.978Z,13.84
2017-04-12T08:15:18.213Z,14.07
2017-04-12T08:16:19.450Z,14.25
2017-04-12T08:17:20.787Z,14.52
2017-04-12T08:18:22.049Z,14.67
2017-04-12T08:19:23.296Z,14.9
2017-04-12T08:20:24.539Z,14.91
2017-04-12T08:21:25.851Z,14.72
2017-04-12T08:22:27.109Z,14.88
2017-04-12T08:23:28.346Z,14.87
2017-04-12T08:24:29.710Z,14.91
2017-04-12T08:25:30.931Z,14.93
2017-04-12T08:26:32.182Z,14.99
2017-04-12T08:27:33.590Z,14.9
2017-04-12T08:28:35.119Z,14.84
2017-04-12T08:29:36.310Z,14.84
2017-04-12T08:30:37.678Z,14.62
2017-04-12T08:31:38.918Z,14.67
2017-04-12T08:32:40.168Z,14.67
2017-04-12T08:33:41.411Z,14.71
2017-04-12T08:34:42.669Z,14.67
2017-04-12T08:35:43.936Z,14.49
2017-04-12T08:36:45.185Z,14.57
2017-04-12T08:37:46.424Z,14.5
2017-04-12T08:38:47.661Z,14.5
2017-04-12T08:39:48.974Z,14.49
2017-04-12T08:40:50.329Z,14.42
2017-04-12T08:41:51.574Z,14.32
2017-04-12T08:42:52.811Z,14.38
2017-04-12T08:43:54.050Z,14.28
2017-04-12T08:44:55.379Z,14.16
2017-04-12T08:45:56.730Z,14.14
2017-04-12T08:46:57.968Z,14.12
2017-04-12T08:47:59.321Z,14.17
2017-04-12T08:49:00.563Z,14.28
2017-04-12T08:50:01.817Z,14.24
2017-04-12T08:51:03.056Z,14.16
2017-04-12T08:52:04.292Z,14.02
2017-04-12T08:53:05.539Z,14.12
2017-04-12T08:54:06.870Z,14.14
2017-04-12T08:55:08.105Z,14.13
2017-04-12T08:56:09.347Z,14.17
2017-04-12T08:57:10.606Z,14.14
2017-04-12T08:58:11.857Z,14.17
2017-04-12T08:59:13.095Z,13.89
2017-04-12T09:00:14.556Z,14.07
2017-04-12T09:01:15.771Z,14.19
2017-04-12T09:02:17.026Z,14.27
2017-04-12T09:03:18.260Z,14.21
2017-04-12T09:04:19.557Z,14.44
2017-04-12T09:05:20.819Z,14.68
2017-04-12T09:06:22.065Z,14.91
2017-04-12T09:07:23.341Z,15.17
2017-04-12T09:08:24.551Z,15.41
2017-04-12T09:09:25.807Z,15.92
2017-04-12T09:10:27.037Z,16.3
2017-04-12T09:11:28.302Z,16.77
2017-04-12T09:12:29.632Z,17.14
2017-04-12T09:13:30.870Z,17.53
2017-04-12T09:14:32.105Z,17.85
2017-04-12T09:15:33.352Z,18.44
2017-04-12T09:16:34.593Z,18.67
2017-04-12T09:17:35.860Z,18.54
2017-04-12T09:18:37.161Z,18.54
2017-04-12T09:19:38.390Z,18.37
2017-04-12T09:20:39.740Z,18.29
2017-04-12T09:21:40.983Z,18.42
2017-04-12T09:22:42.233Z,18.64
2017-04-12T09:23:43.548Z,18.82
2017-04-12T09:24:44.795Z,18.64
2017-04-12T09:25:46.107Z,18.31
2017-04-12T09:26:47.334Z,17.95
2017-04-12T09:27:48.575Z,17.82
2017-04-12T09:28:49.833Z,17.62
2017-04-12T09:29:51.127Z,17.48
2017-04-12T09:30:52.341Z,17.57
2017-04-12T09:31:53.589Z,17.41
2017-04-12T09:32:54.840Z,17.46
2017-04-12T09:33:56.097Z,17.47
2017-04-12T09:34:57.452Z,17.63
2017-04-12T09:35:58.743Z,17.66
2017-04-12T09:36:59.959Z,17.23
2017-04-12T09:38:01.217Z,17.2
2017-04-12T09:39:02.457Z,16.99
2017-04-12T09:40:03.712Z,16.6
2017-04-12T09:41:04.955Z,16.48
2017-04-12T09:42:06.202Z,16.25
2017-04-12T09:43:07.591Z,16.4
2017-04-12T09:44:08.819Z,16.65
2017-04-12T09:45:10.067Z,16.85
2017-04-12T09:46:11.363Z,17.06
2017-04-12T09:47:12.606Z,17.36
2017-04-12T09:48:13.855Z,17.71
2017-04-12T09:49:15.107Z,17.94
2017-04-12T09:50:16.371Z,18.39
2017-04-12T09:51:17.626Z,18.65
2017-04-12T09:52:18.871Z,19.02
2017-04-12T09:53:20.142Z,19.48
2017-04-12T09:54:21.379Z,19.8
2017-04-12T09:55:22.621Z,19.9
2017-04-12T09:56:23.876Z,20.06
2017-04-12T09:57:25.206Z,20.41
2017-04-12T09:58:26.473Z,20.74
2017-04-12T09:59:27.707Z,20.98
2017-04-12T10:00:28.959Z,21.14
2017-04-12T10:01:30.218Z,21.05
2017-04-12T10:02:31.503Z,21.02
2017-04-12T10:03:32.756Z,20.62
2017-04-12T10:04:34.018Z,20.18
2017-04-12T10:05:35.296Z,19.58
2017-04-12T10:06:36.560Z,19.5
2017-04-12T10:07:37.794Z,18.99
2017-04-12T10:08:39.040Z,18.76
2017-04-12T10:09:40.297Z,18.46
2017-04-12T10:10:41.587Z,18.27
2017-04-12T10:11:42.835Z,18.25
2017-04-12T10:12:44.077Z,18.19
2017-04-12T10:13:45.339Z,18.19
2017-04-12T10:14:46.586Z,18.07
2017-04-12T10:15:47.885Z,17.84
2017-04-12T10:16:49.125Z,17.54
2017-04-12T10:17:50.373Z,17.59
2017-04-12T10:18:51.690Z,17.62
2017-04-12T10:19:53.007Z,17.51
2017-04-12T10:20:54.259Z,17.23
2017-04-12T10:21:55.507Z,17.07
2017-04-12T10:22:56.856Z,16.83
2017-04-12T10:23:58.097Z,16.63
2017-04-12T10:24:59.352Z,16.48
2017-04-12T10:26:00.599Z,16.4
2017-04-12T10:27:01.845Z,16.35
2017-04-12T10:28:03.311Z,16.22
2017-04-12T10:29:04.547Z,16.15
2017-04-12T10:30:05.781Z,16.18
2017-04-12T10:31:07.042Z,16.15
2017-04-12T10:32:08.324Z,15.96
2017-04-12T10:33:09.612Z,15.99
2017-04-12T10:34:10.959Z,16.07
2017-04-12T10:35:12.209Z,16.18
2017-04-12T10:36:13.438Z,16.18
2017-04-12T10:37:14.684Z,16.35
2017-04-12T10:38:15.936Z,16.35
2017-04-12T10:39:17.244Z,16.23
2017-04-12T10:40:18.491Z,16.35
2017-04-12T10:41:19.754Z,16.34
2017-04-12T10:42:20.997Z,16.18
2017-04-12T10:43:22.242Z,16.25
2017-04-12T10:44:23.490Z,16.09
2017-04-12T10:45:24.767Z,16.06
2017-04-12T10:46:26.142Z,16.04
2017-04-12T10:47:27.380Z,16
2017-04-12T10:48:28.667Z,15.99
2017-04-12T10:49:30.016Z,15.99
2017-04-12T10:50:31.271Z,16.09
2017-04-12T10:51:32.499Z,16.09
2017-04-12T10:52:33.744Z,16.18
2017-04-12T10:53:35.006Z,15.96
2017-04-12T10:54:36.264Z,15.94
2017-04-12T10:55:37.629Z,15.74
2017-04-12T10:56:38.986Z,15.51
2017-04-12T10:57:40.274Z,15.43
2017-04-12T10:58:41.526Z,15.35
2017-04-12T10:59:42.785Z,15.35
2017-04-12T11:00:44.008Z,15.3
2017-04-12T11:01:45.325Z,15.3
2017-04-12T11:02:46.588Z,15.28
2017-04-12T11:03:47.851Z,15.36
2017-04-12T11:04:49.077Z,15.36
2017-04-12T11:05:50.322Z,15.21
2017-04-12T11:06:51.561Z,15.19
2017-04-12T11:07:52.847Z,15.09
2017-04-12T11:08:54.097Z,14.88
2017-04-12T11:09:55.475Z,14.67
2017-04-12T11:10:56.739Z,14.65
2017-04-12T11:11:57.975Z,14.65
2017-04-12T11:12:59.221Z,14.52
2017-04-12T11:14:00.467Z,14.52
2017-04-12T11:15:01.715Z,14.5
2017-04-12T11:16:02.976Z,14.44
2017-04-12T11:17:04.227Z,14.44
2017-04-12T11:18:05.468Z,14.43
2017-04-12T11:19:06.943Z,14.44
2017-04-12T11:20:08.181Z,14.35
2017-04-12T11:21:09.461Z,14.28
2017-04-12T11:22:10.737Z,14.35
2017-04-12T11:23:11.966Z,14.29
2017-04-12T11:24:13.216Z,14.31
2017-04-12T11:25:14.470Z,14.29
2017-04-12T11:26:15.715Z,14.2
2017-04-12T11:27:17.158Z,14.24
2017-04-12T11:28:18.462Z,14.24
2017-04-12T11:29:19.858Z,14.31
2017-04-12T11:30:21.132Z,14.25
2017-04-12T11:31:22.380Z,14.28
2017-04-12T11:32:23.659Z,14.21
2017-04-12T11:33:24.909Z,14.32
2017-04-12T11:34:26.238Z,14.27
2017-04-12T11:35:27.636Z,14.39
2017-04-12T11:36:28.879Z,14.32
2017-04-12T11:37:30.117Z,14.24
2017-04-12T11:38:31.361Z,14.32
2017-04-12T11:39:32.649Z,14.14
2017-04-12T11:40:33.908Z,14.16
2017-04-12T11:41:35.152Z,14.16
2017-04-12T11:42:36.392Z,14.17
2017-04-12T11:43:37.629Z,14.1
2017-04-12T11:44:38.869Z,14.14
2017-04-12T11:45:40.137Z,13.94
2017-04-12T11:46:41.372Z,13.89
2017-04-12T11:47:42.635Z,13.79
2017-04-12T11:48:43.858Z,13.7
2017-04-12T11:49:45.099Z,13.76
2017-04-12T11:50:46.326Z,13.61
2017-04-12T11:51:47.631Z,13.62
2017-04-12T11:52:48.876Z,13.49
2017-04-12T11:53:50.124Z,13.54
2017-04-12T11:54:51.366Z,13.51
2017-04-12T11:55:52.612Z,13.47
2017-04-12T11:56:53.860Z,13.47
2017-04-12T11:57:55.229Z,13.4
2017-04-12T11:58:56.562Z,13.43
2017-04-12T11:59:57.839Z,13.33
2017-04-12T12:00:59.090Z,13.37
2017-04-12T12:02:00.328Z,13.38
2017-04-12T12:03:01.595Z,13.29
2017-04-12T12:04:02.833Z,13.38
2017-04-12T12:05:04.092Z,13.36
2017-04-12T12:06:05.432Z,13.21
2017-04-12T12:07:06.778Z,13.15
2017-04-12T12:08:08.012Z,13.12
2017-04-12T12:09:09.291Z,13.03
2017-04-12T12:10:10.537Z,13.14
2017-04-12T12:11:11.880Z,13.03
2017-04-12T12:12:13.157Z,13.06
2017-04-12T12:13:14.388Z,13.06
2017-04-12T12:14:15.648Z,13.11
2017-04-12T12:15:16.898Z,13.04
2017-04-12T12:16:18.192Z,12.92
2017-04-12T12:17:19.449Z,12.88
2017-04-12T12:18:20.715Z,12.96
2017-04-12T12:19:21.990Z,13.09
2017-04-12T12:20:23.213Z,13.09
2017-04-12T12:21:24.475Z,12.96
2017-04-12T12:22:25.735Z,12.96
2017-04-12T12:23:27.031Z,12.99
2017-04-12T12:24:28.329Z,12.87
2017-04-12T12:25:29.578Z,12.84
2017-04-12T12:26:30.818Z,12.87
2017-04-12T12:27:32.115Z,12.95
2017-04-12T12:28:33.364Z,12.99
2017-04-12T12:29:34.653Z,12.93
2017-04-12T12:30:35.920Z,13.04
2017-04-12T12:31:37.118Z,13.06
2017-04-12T12:32:38.382Z,12.95
2017-04-12T12:33:39.643Z,12.99
2017-04-12T12:34:40.863Z,12.96
2017-04-12T12:35:42.109Z,12.92
2017-04-12T12:36:43.402Z,12.84
2017-04-12T12:37:44.678Z,12.85
2017-04-12T12:38:45.915Z,12.93
2017-04-12T12:39:47.159Z,13.06
2017-04-12T12:40:48.396Z,12.89
2017-04-12T12:41:49.870Z,12.93
2017-04-12T12:42:51.147Z,12.96
2017-04-12T12:43:52.402Z,12.85
2017-04-12T12:44:53.645Z,12.95
2017-04-12T12:45:54.879Z,13
2017-04-12T12:46:56.134Z,13
2017-04-12T12:47:57.494Z,12.95
2017-04-12T12:48:58.775Z,13
2017-04-12T12:50:00.029Z,13.07
2017-04-12T12:51:01.273Z,13.03
2017-04-12T12:52:02.519Z,13.09
2017-04-12T12:53:03.763Z,13.14
2017-04-12T12:54:05.189Z,13.14
2017-04-12T12:55:06.431Z,13.29
2017-04-12T12:56:07.700Z,13.24
2017-04-12T12:57:08.935Z,13.33
2017-04-12T12:58:10.266Z,13.02
2017-04-12T12:59:11.550Z,13.04
2017-04-12T13:00:12.790Z,13.04
2017-04-12T13:01:14.039Z,13.14
2017-04-12T13:02:15.298Z,13.11
2017-04-12T13:03:16.547Z,13.06
2017-04-12T13:04:17.815Z,13.04
2017-04-12T13:05:19.152Z,12.97
2017-04-12T13:06:20.400Z,12.95
2017-04-12T13:07:21.668Z,12.87
2017-04-12T13:08:22.902Z,12.74
2017-04-12T13:09:24.153Z,12.71
2017-04-12T13:10:25.431Z,12.75
2017-04-12T13:11:26.647Z,12.75
2017-04-12T13:12:27.940Z,12.75
2017-04-12T13:13:29.202Z,12.64
2017-04-12T13:14:30.481Z,12.62
2017-04-12T13:15:31.787Z,12.71
2017-04-12T13:16:33.067Z,12.66
2017-04-12T13:17:34.334Z,12.52
2017-04-12T13:18:35.686Z,12.69
2017-04-12T13:19:36.930Z,12.69
2017-04-12T13:20:38.183Z,12.59
2017-04-12T13:21:39.525Z,12.6
2017-04-12T13:22:40.765Z,12.62